Time;durP1;ratioP1;P1;durP2;ratioP2;P2;SDS_P1;SDS_P2;PMS_P1;PMS_P2;Temp;Humidity;BMP_temperature;BMP_pressure;BME280_temperature;BME280_humidity;BME280_pressure;Samples;Min_cycle;Max_cycle;Signal;HPM_P1;HPM_P2
2022/09/04 00:01:19;;;;;;;2.53;2.33;;;25.30;60.20;;;;;;4958592;28;20447;-74
2022/09/04 00:03:53;;;;;;;2.30;2.10;;;25.30;60.30;;;;;;4974237;28;20456;-73
2022/09/04 00:06:27;;;;;;;2.53;2.33;;;25.20;60.30;;;;;;4979845;28;20449;-74
2022/09/04 00:08:56;;;;;;;2.33;2.10;;;25.20;60.20;;;;;;4952895;28;20706;-74
2022/09/04 00:11:53;;;;;;;2.40;2.20;;;25.20;60.20;;;;;;4955239;28;20438;-74
2022/09/04 00:14:29;;;;;;;3.60;3.30;;;25.20;60.30;;;;;;4955580;28;20485;-74
2022/09/04 00:17:07;;;;;;;2.00;1.90;;;25.20;60.30;;;;;;4929420;29;20463;-74
2022/09/04 00:19:55;;;;;;;2.10;1.90;;;25.20;60.40;;;;;;4949912;28;20981;-74
2022/09/04 00:22:35;;;;;;;2.87;2.67;;;25.20;60.50;;;;;;4978321;28;20460;-74
2022/09/04 00:25:32;;;;;;;3.20;2.27;;;25.20;60.50;;;;;;4955106;28;20485;-74
2022/09/04 00:28:27;;;;;;;2.70;2.27;;;25.10;60.50;;;;;;4939789;28;20454;-73
2022/09/04 00:31:03;;;;;;;3.23;2.03;;;25.10;60.50;;;;;;4939734;28;20421;-74
2022/09/04 00:34:17;;;;;;;3.83;2.13;;;25.10;60.70;;;;;;4956600;28;20523;-75
2022/09/04 00:36:47;;;;;;;2.80;2.47;;;25.10;60.70;;;;;;4964916;28;20437;-75
2022/09/04 00:39:43;;;;;;;2.90;2.53;;;25.10;60.80;;;;;;4961174;28;20464;-74
2022/09/04 00:42:21;;;;;;;2.20;2.00;;;25.10;60.70;;;;;;4942726;28;20444;-73
2022/09/04 00:45:28;;;;;;;2.30;2.10;;;25.00;60.70;;;;;;4936840;29;21023;-74
2022/09/04 00:48:13;;;;;;;2.50;2.30;;;25.00;60.90;;;;;;4918829;28;20800;-73
2022/09/04 00:51:15;;;;;;;2.60;2.40;;;25.00;60.90;;;;;;4955619;28;20437;-74
2022/09/04 00:54:04;;;;;;;2.60;2.40;;;25.00;60.80;;;;;;4927998;28;20586;-74
2022/09/04 00:56:52;;;;;;;2.53;2.33;;;25.00;61.70;;;;;;4938913;28;20749;-74
2022/09/04 00:59:37;;;;;;;2.80;2.60;;;25.00;61.00;;;;;;4959360;28;20853;-74
2022/09/04 01:02:18;;;;;;;2.80;2.60;;;25.00;61.00;;;;;;4955813;28;20455;-74
2022/09/04 01:05:06;;;;;;;2.90;2.70;;;25.00;61.00;;;;;;4970395;28;20430;-74
2022/09/04 01:07:49;;;;;;;2.67;2.47;;;24.90;61.00;;;;;;4946995;28;20516;-74
2022/09/04 01:10:29;;;;;;;3.23;3.03;;;24.90;61.00;;;;;;4934891;28;20460;-74
2022/09/04 01:13:15;;;;;;;3.27;2.47;;;24.90;61.90;;;;;;4952923;28;20417;-74
2022/09/04 01:15:49;;;;;;;3.10;2.63;;;24.90;61.10;;;;;;4958771;28;20452;-73
2022/09/04 01:18:37;;;;;;;3.70;2.57;;;24.90;61.10;;;;;;4957416;28;20434;-74
2022/09/04 01:21:29;;;;;;;3.03;2.80;;;24.90;61.10;;;;;;4977176;28;20957;-74
2022/09/04 01:24:28;;;;;;;3.10;2.90;;;24.90;61.20;;;;;;4947438;28;20477;-74
2022/09/04 01:27:07;;;;;;;2.60;2.40;;;24.90;61.20;;;;;;4957009;28;20470;-74
2022/09/04 01:29:53;;;;;;;2.50;2.30;;;24.90;62.00;;;;;;4949776;28;20613;-74
2022/09/04 01:33:01;;;;;;;2.67;2.33;;;24.80;61.10;;;;;;4982068;28;20604;-74
2022/09/04 01:36:04;;;;;;;2.63;2.40;;;24.80;61.20;;;;;;4965120;28;20433;-74
2022/09/04 01:38:38;;;;;;;2.67;2.47;;;24.80;61.20;;;;;;4903201;28;20967;-74
2022/09/04 01:41:41;;;;;;;3.53;2.37;;;24.80;61.30;;;;;;4950220;28;20782;-74
2022/09/04 01:44:10;;;;;;;2.30;2.10;;;24.70;61.30;;;;;;4984250;28;20477;-74
2022/09/04 01:47:07;;;;;;;3.10;2.63;;;24.80;61.40;;;;;;4953272;28;20811;-74
2022/09/04 01:49:39;;;;;;;2.50;2.30;;;24.70;61.30;;;;;;4933991;28;20462;-74
2022/09/04 01:52:36;;;;;;;2.63;2.43;;;24.70;61.40;;;;;;4960300;28;20427;-74
2022/09/04 01:55:23;;;;;;;2.00;1.80;;;24.70;61.50;;;;;;4958147;28;20461;-74
2022/09/04 01:57:54;;;;;;;3.00;2.80;;;24.70;61.40;;;;;;4958238;28;20484;-74
2022/09/04 02:00:23;;;;;;;3.10;2.50;;;24.70;61.40;;;;;;4975095;28;20432;-74
2022/09/04 02:03:26;;;;;;;2.43;2.23;;;24.70;61.30;;;;;;4972589;28;20429;-74
2022/09/04 02:06:34;;;;;;;4.80;2.20;;;24.70;61.40;;;;;;4956075;28;20554;-74
2022/09/04 02:09:09;;;;;;;2.20;2.10;;;24.60;61.30;;;;;;4941598;28;20480;-74
2022/09/04 02:11:37;;;;;;;2.20;2.10;;;24.60;61.40;;;;;;4936135;28;20448;-74
2022/09/04 02:14:26;;;;;;;2.30;2.10;;;24.60;61.40;;;;;;4989177;28;20840;-74
2022/09/04 02:17:24;;;;;;;2.47;2.27;;;24.60;61.50;;;;;;4933766;28;20446;-74
2022/09/04 02:20:00;;;;;;;2.40;2.20;;;24.60;61.50;;;;;;4926216;28;20441;-74
2022/09/04 02:22:53;;;;;;;2.50;2.30;;;24.60;61.60;;;;;;4927597;28;20950;-74
2022/09/04 02:25:24;;;;;;;2.30;2.10;;;24.60;61.60;;;;;;4973159;28;20422;-74
2022/09/04 02:28:12;;;;;;;2.50;2.30;;;24.60;61.60;;;;;;4960664;28;20824;-74
2022/09/04 02:31:13;;;;;;;3.30;2.20;;;24.50;61.50;;;;;;4954320;29;20457;-74
2022/09/04 02:34:05;;;;;;;2.30;2.17;;;24.50;61.50;;;;;;4963258;28;20528;-74
2022/09/04 02:36:59;;;;;;;2.70;2.30;;;24.50;61.60;;;;;;4938114;29;20435;-74
2022/09/04 02:39:44;;;;;;;2.37;2.13;;;24.50;61.70;;;;;;4941153;28;20842;-74
2022/09/04 02:42:26;;;;;;;3.23;2.40;;;24.50;61.80;;;;;;4961006;28;20532;-74
2022/09/04 02:45:25;;;;;;;2.60;2.40;;;24.50;61.80;;;;;;4963965;28;20458;-74
2022/09/04 02:48:04;;;;;;;2.40;2.20;;;24.50;61.90;;;;;;4976327;28;20948;-74
2022/09/04 02:51:03;;;;;;;2.63;2.43;;;24.50;62.20;;;;;;4976817;28;20499;-74
2022/09/04 02:53:56;;;;;;;2.30;2.10;;;24.40;61.90;;;;;;4974132;28;20445;-74
2022/09/04 02:57:02;;;;;;;2.10;2.00;;;24.40;62.00;;;;;;4938099;29;20459;-74
2022/09/04 02:59:46;;;;;;;2.73;2.40;;;24.40;62.00;;;;;;4991942;28;20449;-74
2022/09/04 03:02:47;;;;;;;2.60;2.40;;;24.40;62.10;;;;;;5066247;23;20866;-75
2022/09/04 03:05:35;;;;;;;2.60;2.30;;;24.40;62.10;;;;;;4936850;28;20817;-75
2022/09/04 03:08:07;;;;;;;3.90;2.13;;;24.40;62.20;;;;;;4962293;28;20450;-75
2022/09/04 03:10:56;;;;;;;2.50;2.30;;;24.40;62.30;;;;;;4975438;28;20533;-75
2022/09/04 03:13:31;;;;;;;2.50;2.30;;;24.40;62.40;;;;;;4974442;28;20438;-74
2022/09/04 03:16:14;;;;;;;2.70;2.40;;;24.40;62.40;;;;;;4982588;28;20428;-74
2022/09/04 03:18:59;;;;;;;2.93;2.67;;;24.30;62.40;;;;;;4955028;29;20872;-74
2022/09/04 03:21:37;;;;;;;2.53;2.33;;;24.30;62.40;;;;;;4959309;28;20441;-74
2022/09/04 03:24:06;;;;;;;3.30;2.60;;;24.30;62.40;;;;;;4922812;29;20447;-74
2022/09/04 03:26:45;;;;;;;2.23;2.07;;;24.30;62.50;;;;;;4938685;29;20430;-74
2022/09/04 03:29:14;;;;;;;2.70;2.37;;;24.20;62.50;;;;;;4973472;28;20501;-74
2022/09/04 03:31:54;;;;;;;4.50;2.27;;;24.20;62.50;;;;;;4941529;28;20470;-74
2022/09/04 03:34:29;;;;;;;3.63;2.30;;;24.30;62.70;;;;;;4974873;28;20576;-74
2022/09/04 03:37:01;;;;;;;2.60;2.37;;;24.20;62.60;;;;;;4974154;28;20399;-74
2022/09/04 03:39:56;;;;;;;2.57;2.30;;;24.20;62.60;;;;;;4974778;28;20398;-74
2022/09/04 03:43:09;;;;;;;2.83;2.63;;;24.20;62.80;;;;;;4957564;28;20956;-74
2022/09/04 03:45:59;;;;;;;2.40;2.20;;;24.20;62.80;;;;;;4956995;28;20442;-74
2022/09/04 03:49:02;;;;;;;2.57;2.37;;;24.20;62.90;;;;;;4972432;28;20973;-74
2022/09/04 03:51:42;;;;;;;3.10;2.70;;;24.20;63.00;;;;;;4957691;28;20462;-74
2022/09/04 03:54:46;;;;;;;2.80;2.60;;;24.20;63.20;;;;;;4989782;28;20461;-74
2022/09/04 03:57:33;;;;;;;2.50;2.30;;;24.20;63.10;;;;;;4957257;28;20931;-74
2022/09/04 04:00:17;;;;;;;2.40;2.20;;;24.20;63.30;;;;;;4974486;28;20411;-74
2022/09/04 04:03:35;;;;;;;2.50;2.30;;;24.10;63.10;;;;;;4974330;28;20485;-74
2022/09/04 04:06:07;;;;;;;2.70;2.50;;;24.10;63.20;;;;;;4945757;28;20430;-74
2022/09/04 04:08:55;;;;;;;3.20;2.47;;;24.10;63.30;;;;;;4974330;28;20945;-74
2022/09/04 04:11:49;;;;;;;3.10;2.67;;;24.10;63.20;;;;;;4952487;28;20536;-74
2022/09/04 04:14:42;;;;;;;2.80;2.40;;;24.10;63.20;;;;;;4972986;28;20425;-74
2022/09/04 04:17:37;;;;;;;2.67;2.47;;;24.10;63.50;;;;;;4989469;28;20415;-74
2022/09/04 04:20:26;;;;;;;2.40;2.20;;;24.10;63.60;;;;;;4974109;28;20410;-74
2022/09/04 04:23:14;;;;;;;2.37;2.17;;;24.00;63.60;;;;;;4953401;28;20436;-74
2022/09/04 04:26:13;;;;;;;2.63;2.43;;;24.00;63.60;;;;;;4958081;28;20465;-74
2022/09/04 04:29:09;;;;;;;2.73;2.53;;;24.00;63.60;;;;;;4944275;28;20465;-74
2022/09/04 04:32:13;;;;;;;2.53;2.33;;;24.00;63.70;;;;;;4960353;28;20953;-74
2022/09/04 04:34:55;;;;;;;5.03;2.80;;;24.00;63.70;;;;;;4993451;28;20437;-74
2022/09/04 04:37:27;;;;;;;2.77;2.57;;;24.00;63.70;;;;;;4965896;28;20865;-74
2022/09/04 04:40:26;;;;;;;2.47;2.27;;;24.00;63.80;;;;;;4955651;28;20529;-74
2022/09/04 04:43:29;;;;;;;2.43;2.23;;;24.00;64.00;;;;;;4974048;28;20489;-74
2022/09/04 04:46:21;;;;;;;2.97;2.37;;;23.90;64.00;;;;;;4973905;28;20434;-74
2022/09/04 04:49:06;;;;;;;2.90;2.40;;;23.90;64.10;;;;;;4976517;28;20441;-74
2022/09/04 04:52:09;;;;;;;2.80;2.60;;;23.90;64.00;;;;;;4928608;28;20426;-74
2022/09/04 04:54:44;;;;;;;2.60;2.40;;;23.90;64.10;;;;;;4928948;28;20445;-74
2022/09/04 04:57:23;;;;;;;2.53;2.33;;;23.90;64.10;;;;;;4960716;28;20413;-74
2022/09/04 05:00:06;;;;;;;2.50;2.30;;;23.80;64.00;;;;;;4960474;28;20398;-74
2022/09/04 05:03:00;;;;;;;2.77;2.47;;;23.80;64.00;;;;;;4977590;28;20437;-74
2022/09/04 05:06:00;;;;;;;3.10;2.80;;;23.80;64.10;;;;;;4960578;28;20415;-74
2022/09/04 05:08:33;;;;;;;2.50;2.30;;;23.80;64.10;;;;;;4956920;29;20431;-74
2022/09/04 05:11:20;;;;;;;2.63;2.43;;;23.80;64.10;;;;;;4941111;29;20395;-74
2022/09/04 05:14:00;;;;;;;2.53;2.33;;;23.80;64.30;;;;;;4925345;29;20457;-74
2022/09/04 05:16:35;;;;;;;4.20;2.43;;;23.80;64.40;;;;;;4940965;29;20438;-74
2022/09/04 05:19:28;;;;;;;2.80;2.40;;;23.80;64.50;;;;;;4958073;29;20824;-74
2022/09/04 05:22:31;;;;;;;3.10;2.50;;;23.70;64.30;;;;;;4963491;28;20424;-74
2022/09/04 05:25:06;;;;;;;2.67;2.47;;;23.70;64.30;;;;;;4956664;29;20489;-74
2022/09/04 05:28:10;;;;;;;2.63;2.43;;;23.80;64.40;;;;;;4957956;29;20425;-74
2022/09/04 05:30:49;;;;;;;3.03;2.73;;;23.70;64.30;;;;;;4949672;28;20464;-74
2022/09/04 05:33:35;;;;;;;4.70;2.73;;;23.70;64.40;;;;;;4977037;28;20434;-74
2022/09/04 05:36:26;;;;;;;3.07;2.57;;;23.70;64.50;;;;;;4976035;28;20418;-74
2022/09/04 05:39:12;;;;;;;2.93;2.73;;;23.70;64.50;;;;;;4963634;28;20432;-74
2022/09/04 05:41:45;;;;;;;2.47;2.27;;;23.70;64.50;;;;;;4943820;28;20488;-74
2022/09/04 05:44:32;;;;;;;2.73;2.53;;;23.70;64.60;;;;;;4971854;28;20441;-74
2022/09/04 05:47:04;;;;;;;2.43;2.23;;;23.70;64.60;;;;;;4975936;28;20489;-74
2022/09/04 05:49:50;;;;;;;4.30;2.47;;;23.70;64.50;;;;;;4959475;28;20461;-74
2022/09/04 05:52:27;;;;;;;3.77;2.87;;;23.60;64.00;;;;;;4976850;28;20538;-74
2022/09/04 05:55:16;;;;;;;2.40;2.20;;;23.60;64.30;;;;;;4959210;28;20843;-74
2022/09/04 05:57:47;;;;;;;2.50;2.30;;;23.60;64.20;;;;;;4973151;28;20842;-74
2022/09/04 06:00:25;;;;;;;2.50;2.30;;;23.60;64.30;;;;;;4958576;28;20430;-74
2022/09/04 06:03:09;;;;;;;2.43;2.23;;;23.60;64.60;;;;;;4959372;28;20445;-74
2022/09/04 06:05:44;;;;;;;2.70;2.27;;;23.60;64.50;;;;;;4943537;28;20561;-74
2022/09/04 06:08:41;;;;;;;2.80;2.60;;;23.60;64.50;;;;;;4976614;28;20409;-75
2022/09/04 06:11:37;;;;;;;2.60;2.40;;;23.60;64.60;;;;;;4959920;28;20835;-74
2022/09/04 06:14:37;;;;;;;2.80;2.60;;;23.60;64.30;;;;;;4959256;28;20430;-74
2022/09/04 06:17:30;;;;;;;3.00;2.80;;;23.60;64.40;;;;;;4943270;28;20445;-74
2022/09/04 06:20:08;;;;;;;2.70;2.50;;;23.60;64.30;;;;;;4972707;28;20419;-74
2022/09/04 06:22:50;;;;;;;2.80;2.60;;;23.50;64.20;;;;;;4940031;29;20403;-75
2022/09/04 06:25:41;;;;;;;2.67;2.47;;;23.50;64.20;;;;;;4945800;28;20444;-74
2022/09/04 06:28:44;;;;;;;2.93;2.73;;;23.50;64.10;;;;;;4962229;28;20480;-74
2022/09/04 06:31:19;;;;;;;2.90;2.10;;;23.50;64.30;;;;;;4978143;28;20418;-74
2022/09/04 06:34:06;;;;;;;2.40;2.20;;;23.50;64.20;;;;;;4950033;28;20450;-74
2022/09/04 06:36:51;;;;;;;3.00;2.70;;;23.50;64.30;;;;;;4959165;28;20844;-75
2022/09/04 06:39:29;;;;;;;2.67;2.47;;;23.50;64.20;;;;;;4976223;28;20406;-75
2022/09/04 06:42:14;;;;;;;2.83;2.53;;;23.50;64.30;;;;;;4961511;28;20500;-73
2022/09/04 06:45:09;;;;;;;2.87;2.57;;;23.50;64.40;;;;;;4956631;29;20857;-75
2022/09/04 06:48:13;;;;;;;2.30;2.10;;;23.40;64.30;;;;;;4955096;29;20472;-74
2022/09/04 06:51:31;;;;;;;3.07;2.50;;;23.50;64.50;;;;;;4923107;29;20477;-75
2022/09/04 06:54:30;;;;;;;2.57;2.20;;;23.40;64.40;;;;;;4922558;29;20525;-75
2022/09/04 06:56:59;;;;;;;2.40;2.20;;;23.40;64.60;;;;;;4922922;29;20450;-74
2022/09/04 06:59:29;;;;;;;2.50;2.30;;;23.40;64.70;;;;;;4938820;29;20463;-74
2022/09/04 07:01:59;;;;;;;2.63;2.43;;;23.40;64.80;;;;;;4954499;28;20441;-74
2022/09/04 07:04:40;;;;;;;3.00;2.80;;;23.40;65.10;;;;;;4955992;29;20446;-74
2022/09/04 07:07:36;;;;;;;2.60;2.40;;;23.40;65.00;;;;;;4958731;28;20857;-74
2022/09/04 07:10:10;;;;;;;3.40;2.13;;;23.40;64.90;;;;;;4955038;28;20477;-75
2022/09/04 07:13:09;;;;;;;2.43;2.23;;;23.40;65.00;;;;;;4975106;28;20402;-74
2022/09/04 07:15:44;;;;;;;2.60;2.40;;;23.40;64.90;;;;;;4973114;28;20505;-75
2022/09/04 07:18:53;;;;;;;2.87;2.67;;;23.40;64.90;;;;;;4961773;28;20428;-74
2022/09/04 07:21:43;;;;;;;2.50;2.30;;;23.40;64.90;;;;;;4941639;28;20475;-74
2022/09/04 07:24:59;;;;;;;3.03;2.57;;;23.40;64.90;;;;;;4976771;28;20460;-74
2022/09/04 07:28:06;;;;;;;3.27;2.97;;;23.40;65.00;;;;;;4977082;28;20438;-74
2022/09/04 07:31:02;;;;;;;3.13;2.83;;;23.40;64.80;;;;;;4973481;28;20534;-75
2022/09/04 07:33:47;;;;;;;3.70;2.73;;;23.40;64.80;;;;;;4991178;28;20446;-74
2022/09/04 07:36:19;;;;;;;3.20;2.40;;;23.40;64.80;;;;;;4973989;28;20433;-72
2022/09/04 07:39:09;;;;;;;2.63;2.43;;;23.40;64.90;;;;;;4974587;28;20405;-73
2022/09/04 07:41:45;;;;;;;2.80;2.60;;;23.40;64.90;;;;;;4974870;28;20431;-74
2022/09/04 07:44:43;;;;;;;2.90;2.70;;;23.40;65.00;;;;;;4974826;28;20441;-74
2022/09/04 07:47:17;;;;;;;2.60;2.40;;;23.40;64.90;;;;;;4974832;28;20460;-74
2022/09/04 07:50:00;;;;;;;2.47;2.30;;;23.40;65.10;;;;;;4974733;28;20585;-73
2022/09/04 07:53:01;;;;;;;2.30;2.00;;;23.40;65.10;;;;;;4974921;28;20411;-74
2022/09/04 07:55:40;;;;;;;2.80;2.60;;;23.40;65.20;;;;;;4957349;28;20406;-73
2022/09/04 07:58:43;;;;;;;4.53;2.93;;;23.40;65.30;;;;;;4974686;28;20438;-74
2022/09/04 08:01:34;;;;;;;2.43;2.23;;;23.40;65.30;;;;;;4974016;28;20525;-73
2022/09/04 08:04:21;;;;;;;3.00;2.50;;;23.40;65.50;;;;;;4933971;29;20444;-74
2022/09/04 08:06:47;;;;;;;2.70;2.50;;;23.40;65.60;;;;;;4934089;29;20496;-73
2022/09/04 08:09:40;;;;;;;2.60;2.37;;;23.40;65.80;;;;;;4971732;28;20552;-74
2022/09/04 08:12:20;;;;;;;5.50;2.80;;;23.40;65.70;;;;;;4974502;28;20190;-73
2022/09/04 08:15:05;;;;;;;2.80;2.60;;;23.40;65.80;;;;;;4974423;28;20434;-74
2022/09/04 08:17:42;;;;;;;4.30;2.60;;;23.40;65.80;;;;;;4957198;28;20437;-74
2022/09/04 08:20:48;;;;;;;2.70;2.50;;;23.40;65.90;;;;;;4974704;28;20445;-73
2022/09/04 08:23:28;;;;;;;2.80;2.60;;;23.40;66.10;;;;;;4920415;29;20783;-73
2022/09/04 08:26:17;;;;;;;4.17;2.43;;;23.40;66.10;;;;;;4952977;29;20477;-73
2022/09/04 08:28:55;;;;;;;2.60;2.40;;;23.40;66.00;;;;;;4926458;29;20430;-73
2022/09/04 08:31:31;;;;;;;5.30;2.57;;;23.40;65.90;;;;;;4952841;29;20836;-73
2022/09/04 08:34:37;;;;;;;3.37;3.10;;;23.40;65.90;;;;;;4952645;29;20822;-74
2022/09/04 08:37:21;;;;;;;2.70;2.50;;;23.40;65.90;;;;;;4924572;29;20461;-74
2022/09/04 08:40:02;;;;;;;2.83;2.50;;;23.50;65.70;;;;;;4953589;29;20431;-74
2022/09/04 08:42:45;;;;;;;2.60;2.40;;;23.50;65.70;;;;;;4937264;29;20489;-73
2022/09/04 08:45:35;;;;;;;2.63;2.43;;;23.50;65.90;;;;;;4935451;29;20455;-73
2022/09/04 08:48:15;;;;;;;2.40;2.20;;;23.50;65.90;;;;;;4935934;29;20447;-73
2022/09/04 08:50:50;;;;;;;2.53;2.30;;;23.60;65.90;;;;;;4952000;29;20456;-73
2022/09/04 08:53:51;;;;;;;3.00;2.70;;;23.60;66.00;;;;;;4940506;28;20456;-73
2022/09/04 08:56:50;;;;;;;3.03;2.67;;;23.60;66.10;;;;;;4938576;28;20462;-72
2022/09/04 08:59:51;;;;;;;2.60;2.40;;;23.60;66.20;;;;;;4952963;28;20513;-73
2022/09/04 09:02:39;;;;;;;2.83;2.60;;;23.60;66.40;;;;;;4947303;29;20580;-73
2022/09/04 09:05:35;;;;;;;2.70;2.50;;;23.60;66.40;;;;;;4966482;28;20974;-73
2022/09/04 09:08:41;;;;;;;2.77;2.57;;;23.70;66.60;;;;;;4971510;28;20548;-73
2022/09/04 09:11:26;;;;;;;3.03;2.40;;;23.70;66.50;;;;;;4952087;29;20550;-73
2022/09/04 09:14:14;;;;;;;2.87;2.60;;;23.70;66.50;;;;;;4938856;28;20446;-73
2022/09/04 09:16:52;;;;;;;3.30;2.73;;;23.70;66.40;;;;;;4992839;28;20398;-73
2022/09/04 09:19:32;;;;;;;2.90;2.53;;;23.70;66.70;;;;;;4952714;28;20882;-73
2022/09/04 09:22:38;;;;;;;2.93;2.67;;;23.80;66.60;;;;;;4956703;28;20477;-73
2022/09/04 09:25:23;;;;;;;3.17;2.87;;;23.80;66.60;;;;;;4962231;28;20464;-72
2022/09/04 09:28:11;;;;;;;2.67;2.47;;;23.80;67.50;;;;;;4993174;28;20729;-72
2022/09/04 09:31:08;;;;;;;3.00;2.80;;;23.90;67.70;;;;;;4926235;28;20453;-72
2022/09/04 09:34:04;;;;;;;3.53;2.50;;;23.90;67.60;;;;;;4973646;28;20450;-73
2022/09/04 09:36:48;;;;;;;2.80;2.60;;;23.90;67.30;;;;;;4963183;28;20429;-72
2022/09/04 09:39:29;;;;;;;3.23;2.63;;;23.90;67.40;;;;;;4975940;28;20417;-72
2022/09/04 09:42:27;;;;;;;2.97;2.67;;;24.00;67.10;;;;;;4951380;29;20779;-72
2022/09/04 09:45:17;;;;;;;2.80;2.60;;;24.00;66.90;;;;;;4957767;29;20464;-73
2022/09/04 09:48:20;;;;;;;4.50;3.10;;;24.00;67.10;;;;;;4979675;28;20421;-73
2022/09/04 09:51:02;;;;;;;3.10;2.77;;;24.10;67.20;;;;;;4972438;28;20484;-73
2022/09/04 09:53:55;;;;;;;2.93;2.73;;;24.10;67.50;;;;;;4976767;28;20489;-73
2022/09/04 09:56:23;;;;;;;3.47;2.60;;;24.20;67.50;;;;;;4959448;28;20430;-73
2022/09/04 09:59:05;;;;;;;3.27;3.07;;;24.20;67.60;;;;;;4959327;28;20411;-73
2022/09/04 10:01:57;;;;;;;4.90;2.80;;;24.20;68.70;;;;;;4961638;28;20433;-73
2022/09/04 10:04:50;;;;;;;3.40;3.10;;;24.30;68.80;;;;;;4958433;28;20488;-72
2022/09/04 10:07:28;;;;;;;4.63;2.33;;;24.30;68.70;;;;;;4982261;28;20194;-73
2022/09/04 10:10:17;;;;;;;3.50;2.50;;;24.40;68.50;;;;;;4945544;28;20456;-73
2022/09/04 10:13:10;;;;;;;2.73;2.50;;;24.40;67.90;;;;;;4971046;28;20441;-72
2022/09/04 10:16:02;;;;;;;6.43;2.90;;;24.40;67.70;;;;;;4976441;28;20782;-74
2022/09/04 10:19:15;;;;;;;3.63;2.90;;;24.50;67.60;;;;;;4957986;28;20469;-72
2022/09/04 10:22:18;;;;;;;3.10;2.80;;;24.50;67.40;;;;;;4948304;28;20774;-73
2022/09/04 10:25:02;;;;;;;2.67;2.47;;;24.50;67.50;;;;;;4959078;28;20963;-72
2022/09/04 10:27:44;;;;;;;2.87;2.67;;;24.60;67.50;;;;;;4958631;28;20524;-71
2022/09/04 10:30:16;;;;;;;3.83;2.97;;;24.60;67.40;;;;;;4973326;28;20898;-71
2022/09/04 10:33:17;;;;;;;2.90;2.70;;;24.70;67.50;;;;;;4978562;28;20424;-72
2022/09/04 10:35:56;;;;;;;2.77;2.50;;;24.70;67.60;;;;;;4958338;28;20477;-71
2022/09/04 10:38:32;;;;;;;4.40;3.23;;;24.70;67.60;;;;;;4972403;28;20943;-71
2022/09/04 10:41:01;;;;;;;2.70;2.50;;;24.80;68.00;;;;;;4930507;29;20462;-72
2022/09/04 10:44:02;;;;;;;3.63;3.20;;;24.80;67.90;;;;;;4924097;29;20451;-72
2022/09/04 10:46:53;;;;;;;3.37;3.07;;;24.90;67.80;;;;;;4923349;29;20419;-71
2022/09/04 10:49:54;;;;;;;2.73;2.53;;;24.90;67.90;;;;;;4941410;28;20449;-72
2022/09/04 10:53:00;;;;;;;3.20;2.60;;;24.90;67.80;;;;;;4942538;28;20417;-72
2022/09/04 10:55:55;;;;;;;5.27;2.87;;;24.90;67.60;;;;;;4919110;29;21007;-73
2022/09/04 10:58:38;;;;;;;3.03;2.83;;;25.00;67.80;;;;;;4939497;29;20456;-72
2022/09/04 11:01:26;;;;;;;2.60;2.40;;;25.00;67.60;;;;;;4939307;29;20445;-73
2022/09/04 11:04:14;;;;;;;2.83;2.63;;;25.10;67.70;;;;;;4942899;28;20474;-73
2022/09/04 11:07:16;;;;;;;2.93;2.70;;;25.10;67.60;;;;;;4973987;28;20801;-73
2022/09/04 11:10:09;;;;;;;2.93;2.67;;;25.10;67.60;;;;;;4931286;28;20471;-74
2022/09/04 11:13:10;;;;;;;2.73;2.53;;;25.20;67.50;;;;;;4954746;28;20411;-74
2022/09/04 11:15:49;;;;;;;3.37;3.10;;;25.20;67.50;;;;;;5029873;23;21390;-75
2022/09/04 11:18:50;;;;;;;4.60;2.40;;;25.30;67.60;;;;;;4957642;28;20457;-72
2022/09/04 11:21:32;;;;;;;3.83;3.10;;;25.30;67.40;;;;;;4976312;28;20928;-74
2022/09/04 11:24:32;;;;;;;2.90;2.53;;;25.30;67.20;;;;;;4983623;28;20446;-73
2022/09/04 11:27:06;;;;;;;3.37;2.83;;;25.40;67.10;;;;;;4963160;28;20456;-74
2022/09/04 11:29:41;;;;;;;5.83;3.23;;;25.40;66.90;;;;;;4966668;28;20468;-73
2022/09/04 11:32:22;;;;;;;5.63;3.20;;;25.40;66.80;;;;;;4966375;28;20543;-72
2022/09/04 11:35:01;;;;;;;4.40;3.07;;;25.50;66.90;;;;;;4938074;29;20452;-73
2022/09/04 11:38:00;;;;;;;3.90;2.80;;;25.50;66.70;;;;;;4965888;28;20465;-73
2022/09/04 11:40:47;;;;;;;3.70;2.70;;;25.50;66.60;;;;;;4933323;29;20909;-73
2022/09/04 11:44:03;;;;;;;2.97;2.77;;;25.60;66.70;;;;;;4963001;28;20458;-73
2022/09/04 11:46:35;;;;;;;3.00;2.80;;;25.60;66.60;;;;;;4954723;29;20799;-73
2022/09/04 11:49:12;;;;;;;3.53;3.23;;;25.60;66.70;;;;;;4946746;29;20470;-73
2022/09/04 11:52:13;;;;;;;4.27;2.53;;;25.60;66.40;;;;;;4954001;29;20456;-73
2022/09/04 11:54:47;;;;;;;3.20;2.90;;;25.70;66.20;;;;;;4934935;29;20943;-73
2022/09/04 11:57:46;;;;;;;3.97;3.27;;;25.70;66.10;;;;;;4934172;29;20405;-73
2022/09/04 12:00:16;;;;;;;3.20;2.90;;;25.70;65.80;;;;;;4955088;29;20406;-73
2022/09/04 12:03:01;;;;;;;3.43;3.10;;;25.70;65.70;;;;;;4954758;28;20417;-73
2022/09/04 12:06:05;;;;;;;3.80;2.90;;;25.80;65.70;;;;;;4954448;28;20460;-73
2022/09/04 12:08:49;;;;;;;3.17;2.73;;;25.80;66.40;;;;;;4931244;28;20993;-73
2022/09/04 12:11:34;;;;;;;3.10;2.90;;;25.80;65.30;;;;;;4953646;29;20436;-73
2022/09/04 12:14:18;;;;;;;5.43;3.20;;;25.90;65.30;;;;;;4958391;28;20841;-73
2022/09/04 12:17:18;;;;;;;3.07;2.87;;;25.90;65.20;;;;;;4950263;29;20476;-72
2022/09/04 12:19:56;;;;;;;2.80;2.60;;;25.90;65.20;;;;;;4947241;28;20442;-73
2022/09/04 12:22:51;;;;;;;3.30;2.97;;;25.90;65.20;;;;;;4956882;28;20516;-73
2022/09/04 12:25:28;;;;;;;2.60;2.40;;;25.90;65.10;;;;;;4943040;28;20446;-73
2022/09/04 12:28:07;;;;;;;2.80;2.50;;;26.00;65.20;;;;;;4956862;28;20473;-75
2022/09/04 12:30:51;;;;;;;4.43;2.97;;;26.00;65.00;;;;;;4961035;28;20967;-73
2022/09/04 12:33:36;;;;;;;2.77;2.50;;;26.00;64.80;;;;;;4953554;28;20446;-74
2022/09/04 12:36:14;;;;;;;2.73;2.53;;;26.10;64.70;;;;;;4953575;28;20437;-73
2022/09/04 12:39:00;;;;;;;4.33;2.70;;;26.10;64.50;;;;;;4953342;28;20446;-73
2022/09/04 12:41:45;;;;;;;2.93;2.73;;;26.10;64.30;;;;;;4969378;28;20422;-73
2022/09/04 12:44:46;;;;;;;2.53;2.33;;;26.20;64.30;;;;;;4956958;28;20449;-73
2022/09/04 12:47:35;;;;;;;2.53;2.33;;;26.20;64.10;;;;;;4959198;28;20432;-73
2022/09/04 12:50:41;;;;;;;3.10;2.80;;;26.20;63.90;;;;;;4972623;28;21028;-73
2022/09/04 12:53:10;;;;;;;3.20;2.30;;;26.20;63.80;;;;;;4965440;28;20897;-73
2022/09/04 12:56:10;;;;;;;2.20;2.10;;;26.30;63.80;;;;;;4955767;28;20419;-73
2022/09/04 12:59:11;;;;;;;3.40;2.60;;;26.30;63.80;;;;;;4957437;28;20440;-73
2022/09/04 13:02:00;;;;;;;6.83;2.40;;;26.40;63.70;;;;;;4966714;28;20419;-74
2022/09/04 13:04:46;;;;;;;2.60;2.40;;;26.40;63.60;;;;;;4953413;28;20451;-74
2022/09/04 13:07:15;;;;;;;2.57;2.37;;;26.40;63.50;;;;;;4962021;28;20588;-73
2022/09/04 13:09:59;;;;;;;2.83;2.53;;;26.40;63.40;;;;;;4956652;28;20490;-75
2022/09/04 13:12:53;;;;;;;2.40;2.20;;;26.50;63.40;;;;;;4947072;28;20429;-72
2022/09/04 13:16:01;;;;;;;3.70;2.27;;;26.50;63.20;;;;;;4976363;28;20453;-74
2022/09/04 13:18:48;;;;;;;3.20;2.37;;;26.60;63.10;;;;;;4959908;28;21240;-74
2022/09/04 13:21:55;;;;;;;3.27;2.20;;;26.60;62.90;;;;;;4976483;28;20448;-74
2022/09/04 13:24:34;;;;;;;2.40;2.20;;;26.60;62.60;;;;;;4957121;28;20542;-74
2022/09/04 13:27:25;;;;;;;3.67;2.23;;;26.60;62.50;;;;;;4976432;28;20840;-74
2022/09/04 13:30:20;;;;;;;6.10;2.23;;;26.70;62.50;;;;;;4976129;28;20465;-73
2022/09/04 13:33:15;;;;;;;2.47;2.27;;;26.70;62.40;;;;;;4991558;28;20444;-73
2022/09/04 13:36:19;;;;;;;2.90;2.40;;;26.70;62.20;;;;;;4992417;28;20406;-74
2022/09/04 13:39:20;;;;;;;2.30;2.10;;;26.70;62.10;;;;;;4959845;28;20536;-72
2022/09/04 13:42:11;;;;;;;2.40;2.20;;;26.70;62.00;;;;;;4949759;28;20468;-74
2022/09/04 13:44:58;;;;;;;2.60;2.40;;;26.70;61.90;;;;;;4937447;29;20865;-73
2022/09/04 13:47:28;;;;;;;2.20;1.93;;;26.80;61.90;;;;;;4927598;29;20432;-75
2022/09/04 13:50:19;;;;;;;3.13;2.43;;;26.80;61.90;;;;;;4943231;28;20477;-73
2022/09/04 13:52:50;;;;;;;2.33;2.13;;;26.80;61.90;;;;;;4942972;28;20425;-73
2022/09/04 13:55:36;;;;;;;2.80;2.60;;;26.80;61.70;;;;;;4967698;28;20441;-73
2022/09/04 13:58:27;;;;;;;2.43;2.23;;;26.90;61.80;;;;;;4963673;28;20430;-72
2022/09/04 14:01:00;;;;;;;2.30;2.00;;;26.90;61.60;;;;;;4948034;29;20477;-72
2022/09/04 14:03:38;;;;;;;1.90;1.80;;;26.90;61.50;;;;;;4965271;28;20453;-73
2022/09/04 14:06:07;;;;;;;2.20;2.03;;;27.00;61.20;;;;;;4971024;28;20888;-73
2022/09/04 14:08:36;;;;;;;2.57;2.20;;;27.00;61.10;;;;;;4967560;28;20939;-72
2022/09/04 14:11:02;;;;;;;4.03;2.27;;;27.00;60.90;;;;;;4958982;28;20473;-72
2022/09/04 14:13:50;;;;;;;2.37;2.27;;;27.00;60.90;;;;;;4954923;28;21239;-72
2022/09/04 14:16:17;;;;;;;2.20;2.00;;;27.00;60.90;;;;;;4967744;28;20237;-72
2022/09/04 14:19:10;;;;;;;2.40;2.20;;;27.10;60.90;;;;;;4974213;28;20413;-72
2022/09/04 14:21:42;;;;;;;3.07;2.33;;;27.10;60.80;;;;;;4947717;28;20426;-74
2022/09/04 14:24:24;;;;;;;3.57;2.30;;;27.10;60.80;;;;;;4953505;28;20554;-73
2022/09/04 14:27:18;;;;;;;3.20;2.40;;;27.10;60.70;;;;;;4966944;28;21077;-73
2022/09/04 14:30:01;;;;;;;3.03;2.63;;;27.10;60.70;;;;;;4957170;28;20454;-72
2022/09/04 14:32:51;;;;;;;2.37;2.20;;;27.20;60.70;;;;;;4973876;28;20445;-74